Time;durP1;ratioP1;P1;durP2;ratioP2;P2;SDS_P1;SDS_P2;PMS_P1;PMS_P2;Temp;Humidity;BMP_temperature;BMP_pressure;BME280_temperature;BME280_humidity;BME280_pressure;Samples;Min_cycle;Max_cycle;Signal;HPM_P1;HPM_P2
2022/04/27 00:00:34;;;;;;;1.67;1.00;;;;;;;1.22;89.25;97317.91;5026024;28;20336;-55
2022/04/27 00:03:08;;;;;;;2.35;1.08;;;;;;;1.15;89.08;97280.38;5026138;28;20061;-53
2022/04/27 00:05:38;;;;;;;1.33;1.10;;;;;;;1.11;88.91;97227.34;5025927;28;20221;-56
2022/04/27 00:08:09;;;;;;;2.65;1.23;;;;;;;1.22;89.20;97240.75;5025941;28;20273;-55
2022/04/27 00:10:40;;;;;;;1.90;1.40;;;;;;;1.45;89.84;97273.56;5025366;28;20076;-55
2022/04/27 00:13:16;;;;;;;17.67;4.13;;;;;;;1.60;89.39;97298.03;5025676;28;20069;-55
2022/04/27 00:15:47;;;;;;;6.95;3.45;;;;;;;1.56;88.76;97286.13;5025662;28;20095;-56
2022/04/27 00:18:19;;;;;;;31.13;4.70;;;;;;;1.75;88.91;97285.56;5026212;28;20387;-55
2022/04/27 00:20:50;;;;;;;3.42;2.20;;;;;;;1.90;89.15;97303.19;5026129;28;20053;-55
2022/04/27 00:23:21;;;;;;;5.78;3.55;;;;;;;2.04;88.70;97305.34;5026084;28;20054;-56
2022/04/27 00:25:51;;;;;;;4.35;2.80;;;;;;;2.31;88.55;97301.09;5025744;28;20355;-55
2022/04/27 00:28:22;;;;;;;4.40;1.42;;;;;;;2.47;88.63;97297.16;5025369;28;20049;-54
2022/04/27 00:30:53;;;;;;;5.72;3.08;;;;;;;2.56;88.16;97299.44;5025311;28;20125;-56
2022/04/27 00:33:26;;;;;;;6.35;2.30;;;;;;;2.77;87.71;97323.69;5026096;28;20984;-56
2022/04/27 00:35:56;;;;;;;4.93;2.25;;;;;;;2.83;86.86;97320.06;5025442;28;20042;-55
2022/04/27 00:38:27;;;;;;;2.17;1.40;;;;;;;2.89;86.73;97319.84;5025949;28;20057;-56
2022/04/27 00:40:57;;;;;;;2.17;1.38;;;;;;;2.97;86.62;97333.38;5025516;28;20057;-56
2022/04/27 00:43:39;;;;;;;2.55;1.63;;;;;;;3.01;86.04;97350.41;5026136;28;20112;-56
2022/04/27 00:46:10;;;;;;;2.22;1.85;;;;;;;2.97;85.85;97364.31;5025262;28;20191;-56
2022/04/27 00:48:43;;;;;;;3.15;2.40;;;;;;;2.84;85.77;97375.91;5025702;28;20088;-56
2022/04/27 00:51:18;;;;;;;4.25;2.80;;;;;;;2.75;85.50;97386.53;5024544;28;20061;-56
2022/04/27 00:53:51;;;;;;;4.55;2.60;;;;;;;2.69;85.77;97394.44;5025162;28;20050;-55
2022/04/27 00:56:23;;;;;;;6.43;3.35;;;;;;;2.65;86.48;97392.84;5025161;28;20073;-56
2022/04/27 00:58:53;;;;;;;6.65;3.67;;;;;;;2.65;87.14;97398.00;5024843;28;20081;-57
2022/04/27 01:01:24;;;;;;;9.07;4.63;;;;;;;2.70;87.78;97402.13;5025812;28;20045;-55
2022/04/27 01:03:57;;;;;;;10.40;6.05;;;;;;;2.75;88.17;97426.03;5024402;28;20045;-56
2022/04/27 01:06:29;;;;;;;10.48;6.20;;;;;;;2.78;88.27;97425.09;5025134;28;20053;-57
2022/04/27 01:08:59;;;;;;;11.02;6.47;;;;;;;2.78;88.35;97425.09;5024348;28;20045;-57
2022/04/27 01:11:32;;;;;;;7.45;4.45;;;;;;;2.79;88.10;97437.09;5024882;28;20060;-58
2022/04/27 01:14:02;;;;;;;8.35;5.15;;;;;;;2.83;87.98;97449.00;5024953;28;20293;-57
2022/04/27 01:16:33;;;;;;;9.43;5.50;;;;;;;2.83;88.08;97437.84;5024199;28;20103;-57
2022/04/27 01:19:06;;;;;;;9.85;4.22;;;;;;;2.87;87.51;97434.28;5024633;28;20056;-58
2022/04/27 01:21:39;;;;;;;6.65;3.60;;;;;;;2.86;86.85;97436.00;5024638;28;20116;-57
2022/04/27 01:24:11;;;;;;;5.57;2.72;;;;;;;2.94;86.85;97452.09;5024776;28;20065;-57
2022/04/27 01:26:42;;;;;;;7.70;3.35;;;;;;;3.00;86.93;97454.50;5024303;28;20060;-57
2022/04/27 01:29:17;;;;;;;7.10;2.20;;;;;;;3.10;85.55;97461.97;5024191;28;20151;-57
2022/04/27 01:31:48;;;;;;;5.35;2.00;;;;;;;3.21;84.16;97470.19;5024878;28;20061;-57
2022/04/27 01:34:19;;;;;;;6.32;3.40;;;;;;;3.27;84.32;97467.44;5024288;28;20063;-57
2022/04/27 01:36:52;;;;;;;6.72;3.50;;;;;;;3.33;84.10;97485.28;5024567;28;20057;-57
2022/04/27 01:39:23;;;;;;;3.47;1.20;;;;;;;3.39;83.48;97499.72;5024223;28;20049;-57
2022/04/27 01:41:54;;;;;;;2.97;1.73;;;;;;;3.49;82.76;97520.94;5024114;28;20227;-57
2022/04/27 01:44:24;;;;;;;1.08;0.82;;;;;;;3.53;81.03;97538.03;5024162;28;20053;-57
2022/04/27 01:46:55;;;;;;;2.25;1.30;;;;;;;3.48;81.18;97539.91;5023964;28;20063;-57
2022/04/27 01:49:26;;;;;;;1.17;0.90;;;;;;;3.56;80.36;97576.66;5024634;28;20065;-56
2022/04/27 01:54:45;;;;;;;4.18;1.80;;;;;;;3.56;80.12;97621.38;5023821;28;20054;-56
2022/04/27 01:57:16;;;;;;;2.47;1.23;;;;;;;3.59;80.07;97625.59;5023970;28;20050;-57
2022/04/27 01:59:46;;;;;;;0.50;0.50;;;;;;;3.59;79.53;97620.44;5023789;28;20060;-56
2022/04/27 02:02:18;;;;;;;3.58;2.08;;;;;;;3.53;79.64;97625.81;5023752;28;20065;-57
2022/04/27 02:04:49;;;;;;;0.60;0.60;;;;;;;3.53;79.60;97636.13;5023947;28;20045;-56
2022/04/27 02:07:21;;;;;;;1.10;0.80;;;;;;;3.53;79.46;97631.81;5025941;28;20045;-57
2022/04/27 02:09:51;;;;;;;1.20;0.80;;;;;;;3.53;79.49;97641.28;5023847;28;20068;-57
2022/04/27 02:12:22;;;;;;;1.00;0.90;;;;;;;3.53;79.02;97667.94;5024080;28;20042;-55
2022/04/27 02:14:53;;;;;;;0.75;0.50;;;;;;;3.56;79.18;97659.28;5024025;28;20120;-56
2022/04/27 02:17:24;;;;;;;0.80;0.73;;;;;;;3.58;79.33;97675.56;5024198;28;20069;-55
2022/04/27 02:19:55;;;;;;;0.50;0.50;;;;;;;3.59;78.76;97677.25;5024002;28;20428;-55
2022/04/27 02:22:27;;;;;;;1.52;0.90;;;;;;;3.59;78.61;97669.50;5023661;28;20054;-56
2022/04/27 02:24:57;;;;;;;1.08;0.70;;;;;;;3.60;78.11;97647.97;5023786;28;20120;-55
2022/04/27 02:27:28;;;;;;;3.70;1.80;;;;;;;3.75;78.51;97647.50;5023771;28;20548;-56
2022/04/27 02:29:59;;;;;;;3.15;0.80;;;;;;;3.87;78.00;97651.44;5028027;28;20083;-54
2022/04/27 02:32:30;;;;;;;0.50;0.50;;;;;;;4.00;77.35;97662.25;5027826;28;20104;-57
2022/04/27 02:35:00;;;;;;;1.40;0.95;;;;;;;4.25;76.56;97663.13;5027340;28;20054;-55
2022/04/27 02:37:32;;;;;;;1.85;0.70;;;;;;;4.58;76.70;97644.81;5027617;28;20053;-56
2022/04/27 02:40:03;;;;;;;0.50;0.50;;;;;;;4.99;75.36;97660.63;5027765;28;20109;-57
2022/04/27 02:42:34;;;;;;;0.40;0.40;;;;;;;5.20;72.94;97674.56;5027373;28;20120;-56
2022/04/27 02:45:05;;;;;;;4.32;0.60;;;;;;;5.14;73.66;97688.56;5027804;28;20061;-56
2022/04/27 02:47:36;;;;;;;0.43;0.43;;;;;;;5.32;71.96;97683.63;5027223;28;20480;-55
2022/04/27 02:52:56;;;;;;;0.50;0.50;;;;;;;5.60;74.20;97684.28;5027403;28;20086;-57
2022/04/27 02:55:26;;;;;;;1.13;0.80;;;;;;;5.86;73.72;97685.03;5027098;28;20054;-57
2022/04/27 02:57:57;;;;;;;0.60;0.60;;;;;;;5.90;72.76;97696.97;5026708;28;20053;-58
2022/04/27 03:00:30;;;;;;;0.70;0.40;;;;;;;6.03;72.54;97687.84;5026854;28;20071;-57
2022/04/27 03:03:00;;;;;;;0.40;0.40;;;;;;;5.82;69.12;97683.47;5027194;28;20057;-57
2022/04/27 03:05:31;;;;;;;0.50;0.50;;;;;;;5.91;72.46;97677.91;5027211;28;20061;-57
2022/04/27 03:08:04;;;;;;;0.57;0.57;;;;;;;6.26;72.19;97704.22;5027056;28;20053;-57
2022/04/27 03:10:34;;;;;;;0.88;0.73;;;;;;;6.48;71.09;97712.84;5026949;28;20068;-58
2022/04/27 03:13:05;;;;;;;0.40;0.40;;;;;;;6.55;69.70;97720.38;5026984;28;20053;-58
2022/04/27 03:15:35;;;;;;;0.85;0.50;;;;;;;6.58;70.87;97744.44;5026961;28;20071;-55
2022/04/27 03:20:53;;;;;;;0.70;0.68;;;;;;;6.45;68.70;97745.84;5026777;28;20113;-58
2022/04/27 03:23:25;;;;;;;0.40;0.40;;;;;;;6.29;67.61;97756.00;5027185;28;20076;-59
2022/04/27 03:25:56;;;;;;;0.50;0.50;;;;;;;6.31;70.80;97753.31;5026951;28;20092;-56
2022/04/27 03:28:27;;;;;;;0.40;0.40;;;;;;;6.47;69.41;97765.63;5026722;28;20095;-57
2022/04/27 03:30:57;;;;;;;0.50;0.50;;;;;;;6.31;68.27;97743.78;5027069;28;20120;-58
2022/04/27 03:33:28;;;;;;;0.50;0.50;;;;;;;6.53;68.86;97771.50;5026434;28;20365;-58
2022/04/27 03:35:59;;;;;;;0.40;0.40;;;;;;;6.46;69.54;97769.16;5026683;28;20041;-58
2022/04/27 03:38:31;;;;;;;0.40;0.40;;;;;;;6.38;68.78;97771.19;5026167;28;20061;-58
2022/04/27 03:41:02;;;;;;;0.50;0.50;;;;;;;6.32;70.11;97781.81;5026519;28;20053;-60
2022/04/27 03:43:33;;;;;;;0.50;0.50;;;;;;;6.28;70.03;97785.41;5026416;28;20124;-57
2022/04/27 03:46:03;;;;;;;0.40;0.40;;;;;;;6.36;71.02;97772.97;5026244;28;20117;-57
2022/04/27 03:48:34;;;;;;;0.40;0.40;;;;;;;6.31;71.03;97780.09;5026361;28;20058;-58
2022/04/27 03:51:05;;;;;;;0.40;0.40;;;;;;;6.28;72.30;97769.84;5026342;28;20061;-57
2022/04/27 03:53:37;;;;;;;0.40;0.40;;;;;;;6.16;72.22;97765.13;5026126;28;20084;-58
2022/04/27 03:56:08;;;;;;;0.68;0.60;;;;;;;6.02;72.41;97774.28;5026453;28;20049;-58
2022/04/27 03:58:39;;;;;;;0.40;0.40;;;;;;;5.78;72.65;97765.66;5025740;28;20107;-58
2022/04/27 04:01:09;;;;;;;0.40;0.40;;;;;;;5.50;73.39;97771.00;5025662;28;20053;-58
2022/04/27 04:03:40;;;;;;;0.47;0.40;;;;;;;5.19;73.58;97772.09;5025788;28;20363;-57
2022/04/27 04:06:11;;;;;;;0.65;0.50;;;;;;;4.87;73.87;97774.91;5026178;28;20057;-58
2022/04/27 04:08:43;;;;;;;0.60;0.60;;;;;;;4.46;74.23;97770.16;5025881;28;20116;-58
2022/04/27 04:11:14;;;;;;;1.15;0.90;;;;;;;4.26;75.42;97773.38;5025733;28;20073;-57
2022/04/27 04:13:44;;;;;;;1.20;1.00;;;;;;;4.15;76.13;97772.88;5025850;28;20085;-57
2022/04/27 04:16:15;;;;;;;0.60;0.60;;;;;;;3.97;76.61;97773.41;5025725;28;20042;-57
2022/04/27 04:18:46;;;;;;;1.52;0.77;;;;;;;3.84;77.03;97773.81;5025750;28;20586;-57
2022/04/27 04:21:16;;;;;;;0.47;0.47;;;;;;;3.72;77.90;97787.06;5025660;28;20053;-57
2022/04/27 04:23:48;;;;;;;2.65;0.52;;;;;;;3.60;78.03;97787.41;5025694;28;20248;-58
2022/04/27 04:29:06;;;;;;;0.50;0.50;;;;;;;3.70;79.48;97775.94;5025396;28;20386;-58
2022/04/27 04:31:37;;;;;;;0.50;0.50;;;;;;;3.74;79.39;97780.09;5025234;28;20057;-58
2022/04/27 04:34:10;;;;;;;0.85;0.60;;;;;;;3.69;79.31;97797.47;5026042;28;20056;-57
2022/04/27 04:36:41;;;;;;;0.65;0.50;;;;;;;3.59;78.99;97791.69;5025445;28;20046;-58
2022/04/27 04:39:13;;;;;;;0.50;0.50;;;;;;;3.58;79.28;97789.19;5025364;28;20084;-58
2022/04/27 04:41:44;;;;;;;0.65;0.65;;;;;;;3.65;79.67;97795.88;5025370;28;20077;-58
2022/04/27 04:44:15;;;;;;;0.50;0.50;;;;;;;3.70;79.49;97793.16;5025308;28;20400;-58
2022/04/27 04:46:45;;;;;;;0.60;0.60;;;;;;;3.72;79.63;97796.53;5025183;28;20077;-57
2022/04/27 04:49:16;;;;;;;0.60;0.60;;;;;;;3.79;79.26;97782.56;5025145;28;20084;-58
2022/04/27 04:51:47;;;;;;;0.68;0.60;;;;;;;3.88;78.99;97783.13;5024619;28;20061;-57
2022/04/27 04:54:19;;;;;;;0.60;0.60;;;;;;;3.94;79.37;97770.94;5025741;28;20061;-58
2022/04/27 04:56:49;;;;;;;2.17;0.65;;;;;;;3.93;79.16;97784.75;5025434;28;20046;-58
2022/04/27 04:59:20;;;;;;;1.50;0.75;;;;;;;3.94;79.24;97770.94;5024570;28;20554;-57
2022/04/27 05:01:51;;;;;;;4.57;1.13;;;;;;;3.97;79.07;97781.16;5024806;28;20536;-58
2022/04/27 05:04:22;;;;;;;2.00;0.73;;;;;;;4.04;79.04;97767.16;5024805;28;20348;-58
2022/04/27 05:06:52;;;;;;;3.35;0.80;;;;;;;4.16;79.22;97781.47;5024938;28;20080;-58
2022/04/27 05:09:25;;;;;;;1.13;0.80;;;;;;;4.26;79.03;97770.78;5024817;28;20049;-58
2022/04/27 05:11:55;;;;;;;3.25;1.08;;;;;;;4.37;79.34;97769.63;5024559;28;20587;-58
2022/04/27 05:14:26;;;;;;;4.75;0.93;;;;;;;4.44;78.69;97777.16;5024998;28;20053;-58
2022/04/27 05:16:56;;;;;;;4.82;1.30;;;;;;;4.05;79.00;97691.38;5024951;28;20270;-57
2022/04/27 05:19:27;;;;;;;6.18;1.83;;;;;;;4.86;78.28;97783.56;5024988;28;20080;-58
2022/04/27 05:21:58;;;;;;;6.80;1.90;;;;;;;5.06;77.42;97760.44;5024865;28;20081;-57
2022/04/27 05:24:30;;;;;;;4.70;1.10;;;;;;;5.32;77.25;97782.03;5025021;28;20350;-58
2022/04/27 05:27:01;;;;;;;4.30;1.42;;;;;;;5.47;76.48;97781.47;5024715;28;20096;-58
2022/04/27 05:32:19;;;;;;;4.28;1.42;;;;;;;5.62;71.55;97770.56;5024191;28;20364;-58
2022/04/27 05:34:52;;;;;;;7.97;1.65;;;;;;;5.74;73.51;97777.06;5023406;28;20102;-60
2022/04/27 05:37:23;;;;;;;7.28;1.88;;;;;;;5.86;73.12;97780.06;5024254;28;20058;-59
2022/04/27 05:39:56;;;;;;;4.78;1.60;;;;;;;5.91;73.25;97781.59;5039804;28;20054;-59
2022/04/27 05:42:26;;;;;;;7.15;2.22;;;;;;;5.95;73.02;97798.75;5024221;28;20073;-57
2022/04/27 05:44:57;;;;;;;4.75;1.90;;;;;;;6.00;73.41;97807.19;5024445;28;20073;-57
2022/04/27 05:47:27;;;;;;;5.55;1.30;;;;;;;6.04;73.17;97808.78;5023983;28;20068;-58
2022/04/27 05:49:58;;;;;;;8.98;1.60;;;;;;;6.11;71.38;97805.94;5024752;28;20297;-58
2022/04/27 05:52:29;;;;;;;7.30;1.60;;;;;;;5.99;69.57;97818.50;5024236;28;20104;-59
2022/04/27 05:55:02;;;;;;;10.13;1.98;;;;;;;5.84;70.73;97798.25;5024221;28;20344;-58
2022/04/27 05:57:33;;;;;;;8.25;2.20;;;;;;;6.01;71.13;97821.84;5024071;28;20117;-58
2022/04/27 06:00:04;;;;;;;8.13;1.40;;;;;;;6.04;69.13;97828.66;5023506;28;20232;-58
2022/04/27 06:02:35;;;;;;;9.23;1.75;;;;;;;6.04;69.68;97813.09;5023611;28;20050;-58
2022/04/27 06:05:06;;;;;;;7.10;1.77;;;;;;;6.11;70.20;97840.50;5023664;28;20115;-58
2022/04/27 06:07:37;;;;;;;9.70;1.98;;;;;;;6.25;70.09;97821.84;5024103;28;20089;-57
2022/04/27 06:10:11;;;;;;;5.60;1.40;;;;;;;6.37;68.57;97849.91;5023920;28;20053;-58
2022/04/27 06:12:51;;;;;;;9.40;1.58;;;;;;;6.34;66.39;97847.44;5023448;28;20049;-58
2022/04/27 06:15:21;;;;;;;5.40;1.23;;;;;;;6.42;67.92;97847.97;5023775;28;20046;-58
2022/04/27 06:17:52;;;;;;;9.30;1.77;;;;;;;6.47;68.45;97876.34;5023862;28;20398;-58
2022/04/27 06:20:23;;;;;;;4.28;1.17;;;;;;;6.40;67.64;97857.56;5024216;28;20110;-58
2022/04/27 06:22:54;;;;;;;8.68;1.52;;;;;;;6.36;67.32;97874.13;5023796;28;20097;-59
2022/04/27 06:25:27;;;;;;;7.13;1.60;;;;;;;6.57;67.65;97880.28;5023422;28;20065;-59
2022/04/27 06:27:57;;;;;;;6.57;1.45;;;;;;;6.79;66.79;97880.31;5023520;28;20053;-58
2022/04/27 06:30:28;;;;;;;9.23;2.03;;;;;;;6.83;66.63;97896.59;5023748;28;20089;-58
2022/04/27 06:32:59;;;;;;;7.82;1.40;;;;;;;6.77;66.51;97892.50;5024069;28;20057;-59
2022/04/27 06:35:30;;;;;;;3.53;1.35;;;;;;;6.53;65.22;97888.22;5023884;28;20293;-59
2022/04/27 06:38:00;;;;;;;3.67;1.20;;;;;;;6.43;62.65;97898.94;5024068;28;20109;-59
2022/04/27 06:40:53;;;;;;;6.47;1.38;;;;;;;6.31;64.20;97914.13;5023606;28;20052;-58
2022/04/27 06:43:23;;;;;;;3.92;1.42;;;;;;;6.25;64.68;97920.38;5023559;28;20642;-58
2022/04/27 06:45:54;;;;;;;5.90;1.33;;;;;;;6.18;64.06;97942.25;5023436;28;20053;-59
2022/04/27 06:48:25;;;;;;;6.32;1.50;;;;;;;6.17;64.45;97932.78;5023483;28;20128;-58
2022/04/27 06:50:55;;;;;;;5.65;2.20;;;;;;;6.35;63.16;97947.69;5023595;28;20053;-58
2022/04/27 06:53:26;;;;;;;6.18;1.17;;;;;;;6.55;62.36;97951.28;5023277;28;20113;-57
2022/04/27 06:56:01;;;;;;;4.28;1.23;;;;;;;6.75;64.25;97966.13;5023719;28;20069;-58
2022/04/27 06:58:32;;;;;;;6.40;1.30;;;;;;;6.96;62.92;97974.81;5023734;28;20049;-57
2022/04/27 07:01:03;;;;;;;3.58;1.05;;;;;;;7.12;62.30;97975.94;5023767;28;20046;-58
2022/04/27 07:03:35;;;;;;;4.90;1.38;;;;;;;7.10;60.07;97995.94;5023204;28;20100;-57
2022/04/27 07:06:07;;;;;;;5.45;1.08;;;;;;;7.05;58.51;97990.06;5023344;28;20061;-59
2022/04/27 07:08:38;;;;;;;3.15;1.20;;;;;;;7.04;59.12;98003.94;5023484;28;20092;-58
2022/04/27 07:11:10;;;;;;;3.33;0.90;;;;;;;7.10;56.71;97990.72;5023244;28;20369;-55
2022/04/27 07:13:41;;;;;;;2.28;1.10;;;;;;;6.89;56.85;97995.84;5023768;28;20124;-59
2022/04/27 07:16:11;;;;;;;3.15;1.10;;;;;;;6.66;57.57;98004.50;5026745;28;20056;-58
2022/04/27 07:18:42;;;;;;;3.45;1.25;;;;;;;6.46;57.69;97992.25;5026741;28;20049;-58
2022/04/27 07:21:13;;;;;;;1.83;1.00;;;;;;;6.35;58.40;98015.13;5027012;28;20090;-57
2022/04/27 07:23:43;;;;;;;3.35;1.10;;;;;;;6.34;59.96;98028.13;5025842;28;20382;-57
2022/04/27 07:26:16;;;;;;;1.80;0.98;;;;;;;6.25;59.09;98018.94;5027109;28;20065;-57
2022/04/27 07:28:47;;;;;;;2.65;0.90;;;;;;;6.16;59.26;98024.44;5027244;28;20057;-57
2022/04/27 07:31:17;;;;;;;4.03;0.88;;;;;;;6.07;58.51;98019.59;5026596;28;20549;-57
2022/04/27 07:33:48;;;;;;;2.78;1.00;;;;;;;6.03;59.20;98030.03;5026672;28;20388;-56
2022/04/27 07:36:19;;;;;;;3.47;1.10;;;;;;;5.60;59.02;97929.53;5026406;28;20062;-55
2022/04/27 07:38:50;;;;;;;2.45;0.90;;;;;;;6.46;57.14;98013.00;5026319;28;20077;-56
2022/04/27 07:41:22;;;;;;;4.72;1.00;;;;;;;6.57;57.01;98019.56;5026425;28;20120;-54
2022/04/27 07:43:53;;;;;;;2.35;1.20;;;;;;;6.57;55.44;98022.16;5026390;28;20304;-56
2022/04/27 07:46:24;;;;;;;2.78;0.90;;;;;;;6.64;55.36;98036.56;5026460;28;20069;-56
2022/04/27 07:48:55;;;;;;;1.33;0.57;;;;;;;6.30;53.94;98035.19;5026000;28;20057;-54
2022/04/27 07:51:25;;;;;;;7.38;1.00;;;;;;;6.36;55.68;98042.72;5026219;28;20054;-54
2022/04/27 07:53:56;;;;;;;3.88;1.00;;;;;;;6.23;54.71;98031.09;5026317;28;20057;-55
2022/04/27 07:56:29;;;;;;;4.22;1.10;;;;;;;6.38;54.14;98051.31;5026259;28;20240;-54
2022/04/27 07:58:59;;;;;;;1.35;0.70;;;;;;;6.32;52.83;98082.66;5026263;28;20135;-54
2022/04/27 08:01:30;;;;;;;1.25;0.70;;;;;;;6.14;52.52;98078.06;5025921;28;20054;-55
2022/04/27 08:04:01;;;;;;;2.22;0.90;;;;;;;6.03;52.65;98083.63;5026442;28;20062;-56
2022/04/27 08:06:32;;;;;;;2.10;0.90;;;;;;;5.79;52.63;98093.00;5026934;28;20045;-54
2022/04/27 08:09:02;;;;;;;2.92;1.08;;;;;;;5.66;54.40;98104.66;5027426;28;20154;-54
2022/04/27 08:11:35;;;;;;;3.78;0.80;;;;;;;5.49;54.43;98116.41;5025770;28;20061;-54
2022/04/27 08:14:06;;;;;;;2.30;0.90;;;;;;;5.45;55.23;98107.03;5025641;28;20122;-55
2022/04/27 08:16:37;;;;;;;4.22;1.42;;;;;;;5.43;54.99;98101.03;5025842;28;20116;-53
2022/04/27 08:19:07;;;;;;;3.85;1.30;;;;;;;5.43;56.63;98101.03;5025794;28;20057;-54
2022/04/27 08:21:38;;;;;;;7.32;1.10;;;;;;;5.37;56.47;98132.31;5025801;28;20132;-53
2022/04/27 08:24:11;;;;;;;2.08;0.75;;;;;;;5.40;55.45;98132.22;5025910;28;20341;-55
2022/04/27 08:26:43;;;;;;;1.95;0.90;;;;;;;5.38;56.18;98123.63;5024293;28;20052;-55
2022/04/27 08:29:14;;;;;;;2.42;0.90;;;;;;;5.30;57.17;98121.28;5025853;28;20053;-54
2022/04/27 08:31:45;;;;;;;2.72;1.10;;;;;;;5.30;56.69;98120.44;5025436;28;20053;-56
2022/04/27 08:34:17;;;;;;;2.90;0.95;;;;;;;5.28;57.99;98137.75;5025520;28;20159;-55
2022/04/27 08:36:48;;;;;;;4.90;1.27;;;;;;;5.26;58.73;98134.34;5025425;28;20050;-55
2022/04/27 08:39:18;;;;;;;4.00;1.40;;;;;;;5.29;56.79;98123.91;5025242;28;20065;-54
2022/04/27 08:41:51;;;;;;;5.80;1.02;;;;;;;5.27;58.25;98146.41;5025634;28;20109;-55
2022/04/27 08:44:22;;;;;;;4.45;1.30;;;;;;;5.21;57.84;98141.41;5025199;28;20079;-56
2022/04/27 08:46:54;;;;;;;4.13;1.00;;;;;;;5.08;57.46;98140.91;5025227;28;20056;-54
2022/04/27 08:49:24;;;;;;;5.63;1.15;;;;;;;5.04;57.57;98128.94;5025643;28;20064;-55
2022/04/27 08:51:56;;;;;;;3.92;1.10;;;;;;;5.02;57.68;98126.41;5024838;28;20228;-55
2022/04/27 08:54:27;;;;;;;3.95;1.10;;;;;;;4.95;55.40;98156.78;5025042;28;20113;-55
2022/04/27 08:56:59;;;;;;;3.10;1.00;;;;;;;4.94;54.44;98161.97;5025035;28;20112;-54
2022/04/27 08:59:30;;;;;;;4.72;1.00;;;;;;;4.96;55.44;98168.81;5025026;28;20066;-57
2022/04/27 09:02:27;;;;;;;5.53;1.60;;;;;;;4.93;56.29;98188.75;5024983;28;20081;-55
2022/04/27 09:05:08;;;;;;;5.97;1.10;;;;;;;4.87;54.40;98188.94;5025136;28;20117;-55
2022/04/27 09:07:43;;;;;;;5.05;1.13;;;;;;;4.28;55.83;98118.00;5024520;28;20057;-55
2022/04/27 09:10:14;;;;;;;7.53;1.20;;;;;;;4.74;56.41;98207.38;5024751;28;20050;-55
2022/04/27 09:12:48;;;;;;;7.07;1.20;;;;;;;4.70;57.30;98213.50;5024387;28;20325;-55
2022/04/27 09:15:20;;;;;;;6.18;1.63;;;;;;;4.66;57.65;98222.22;5024676;28;20060;-55
2022/04/27 09:20:48;;;;;;;5.93;1.20;;;;;;;4.53;58.58;98241.53;5024698;28;20823;-54
2022/04/27 09:23:23;;;;;;;9.32;1.40;;;;;;;4.32;58.96;98217.88;5024299;28;20072;-55
2022/04/27 09:25:55;;;;;;;9.23;1.65;;;;;;;4.25;57.75;98218.91;5024291;28;20061;-54
2022/04/27 09:28:36;;;;;;;9.23;2.53;;;;;;;4.46;57.82;98255.47;5024551;28;20444;-55
2022/04/27 09:31:06;;;;;;;8.60;3.20;;;;;;;4.41;58.01;98272.84;5024603;28;20296;-54
2022/04/27 09:33:38;;;;;;;6.03;1.45;;;;;;;4.13;57.55;98234.72;5024263;28;20064;-54
2022/04/27 09:36:23;;;;;;;8.20;1.50;;;;;;;4.34;57.88;98297.97;5024104;28;20244;-55
2022/04/27 09:38:54;;;;;;;5.75;1.58;;;;;;;4.38;57.86;98303.94;5024140;28;20059;-55
2022/04/27 09:41:42;;;;;;;5.60;1.33;;;;;;;4.32;56.89;98305.78;5024190;28;20073;-54
2022/04/27 09:44:28;;;;;;;8.50;1.88;;;;;;;4.40;56.78;98325.47;5023961;28;20062;-54
2022/04/27 09:47:00;;;;;;;6.35;1.08;;;;;;;4.35;56.07;98304.03;5024269;28;20053;-55
2022/04/27 09:49:31;;;;;;;2.20;0.70;;;;;;;4.41;55.27;98321.97;5023976;28;20120;-54
2022/04/27 09:52:03;;;;;;;5.22;1.40;;;;;;;4.39;55.63;98341.84;5024215;28;20041;-56
2022/04/27 09:54:36;;;;;;;3.63;0.98;;;;;;;4.33;54.41;98333.34;5024191;28;20069;-55
2022/04/27 09:57:08;;;;;;;4.20;1.10;;;;;;;4.36;55.83;98336.75;5024179;28;20042;-55
2022/04/27 09:59:41;;;;;;;4.10;1.17;;;;;;;4.38;55.22;98345.31;5024214;28;20069;-55
2022/04/27 10:02:14;;;;;;;7.07;1.27;;;;;;;4.36;53.33;98355.69;5023854;28;20076;-55
2022/04/27 10:04:46;;;;;;;6.45;1.40;;;;;;;4.38;53.94;98371.19;5023891;28;20081;-54
2022/04/27 10:07:17;;;;;;;8.15;2.45;;;;;;;4.28;53.88;98376.53;5023782;28;20054;-54
2022/04/27 10:09:49;;;;;;;9.73;2.95;;;;;;;4.26;54.52;98378.31;5023895;28;20087;-54
2022/04/27 10:12:20;;;;;;;3.53;0.90;;;;;;;4.25;52.73;98386.97;5023591;28;20109;-55
2022/04/27 10:14:53;;;;;;;5.57;1.20;;;;;;;4.24;53.99;98390.44;5023599;28;20075;-54
2022/04/27 10:17:23;;;;;;;5.85;1.10;;;;;;;4.21;55.15;98416.31;5023796;28;20081;-54
2022/04/27 10:19:54;;;;;;;8.02;1.25;;;;;;;4.21;53.39;98390.47;5023489;28;20236;-53
2022/04/27 10:22:30;;;;;;;4.80;1.00;;;;;;;4.23;53.96;98417.16;5024913;28;20124;-55
2022/04/27 10:25:07;;;;;;;4.78;1.10;;;;;;;4.23;53.66;98424.91;5024064;28;20060;-56
2022/04/27 10:27:40;;;;;;;4.18;0.90;;;;;;;4.18;53.10;98426.75;5024838;28;20054;-56
2022/04/27 10:30:14;;;;;;;4.18;1.10;;;;;;;4.17;53.80;98425.03;5023576;28;20100;-54
2022/04/27 10:32:46;;;;;;;4.43;1.30;;;;;;;4.14;53.91;98438.00;5023495;28;20116;-55
2022/04/27 10:35:21;;;;;;;4.22;1.10;;;;;;;3.63;51.68;98355.47;5023369;28;20435;-56
2022/04/27 10:37:54;;;;;;;11.38;2.97;;;;;;;4.13;52.48;98449.25;5023809;28;20077;-54
2022/04/27 10:40:32;;;;;;;3.95;1.10;;;;;;;4.08;52.40;98445.91;5023578;28;20533;-54
2022/04/27 10:43:21;;;;;;;4.85;1.20;;;;;;;4.04;52.71;98459.75;5023358;28;20313;-55
2022/04/27 10:45:54;;;;;;;3.42;1.00;;;;;;;4.03;52.76;98468.41;5019978;28;20998;-55
2022/04/27 10:48:45;;;;;;;3.97;0.90;;;;;;;3.92;51.62;98460.84;5023617;28;20099;-54
2022/04/27 10:51:16;;;;;;;3.38;1.00;;;;;;;4.00;51.98;98483.97;5027240;28;20116;-54
2022/04/27 10:53:48;;;;;;;3.60;0.90;;;;;;;3.97;51.92;98494.34;5027277;28;20053;-54
2022/04/27 10:56:39;;;;;;;4.45;0.80;;;;;;;4.00;49.99;98496.88;5027483;28;20053;-55
2022/04/27 10:59:47;;;;;;;6.13;0.95;;;;;;;3.96;51.71;98495.22;5026973;28;20054;-55
2022/04/27 11:02:35;;;;;;;5.63;1.20;;;;;;;3.92;51.73;98514.25;5027282;28;20095;-53
2022/04/27 11:05:21;;;;;;;1.67;0.90;;;;;;;3.92;51.83;98501.31;5027143;28;20100;-55
2022/04/27 11:07:58;;;;;;;2.72;0.85;;;;;;;3.83;52.01;98508.34;5026814;28;20396;-54
2022/04/27 11:10:28;;;;;;;2.33;0.80;;;;;;;3.86;51.00;98528.97;5027114;28;20324;-54
2022/04/27 11:13:01;;;;;;;1.45;0.80;;;;;;;3.82;50.06;98542.84;5027764;28;20073;-55
2022/04/27 11:15:32;;;;;;;7.05;1.00;;;;;;;3.85;50.01;98537.63;5027225;28;20057;-54
2022/04/27 11:18:05;;;;;;;4.28;1.63;;;;;;;3.62;50.83;98512.16;5026858;28;20405;-55
2022/04/27 11:20:38;;;;;;;4.82;0.90;;;;;;;3.78;50.42;98548.91;5027154;28;20062;-55
2022/04/27 11:23:10;;;;;;;2.17;1.02;;;;;;;3.76;49.76;98552.41;5027057;28;20053;-55
2022/04/27 11:25:42;;;;;;;4.63;1.27;;;;;;;3.76;50.34;98553.25;5026889;28;20068;-54
2022/04/27 11:28:13;;;;;;;5.10;1.20;;;;;;;3.76;51.72;98552.41;5026646;28;20117;-54
2022/04/27 11:30:44;;;;;;;5.18;1.00;;;;;;;3.68;50.86;98558.56;5027032;28;20130;-53
2022/04/27 11:33:18;;;;;;;3.92;1.00;;;;;;;3.70;50.29;98574.03;5026069;28;20120;-54
2022/04/27 11:35:50;;;;;;;2.45;1.20;;;;;;;3.72;50.24;98580.03;5026486;28;20060;-55
2022/04/27 11:38:22;;;;;;;5.25;1.45;;;;;;;3.73;50.25;98573.13;5026396;28;20068;-54
2022/04/27 11:40:52;;;;;;;4.38;1.23;;;;;;;3.72;51.51;98577.44;5027190;28;20153;-55
2022/04/27 11:43:27;;;;;;;5.03;1.33;;;;;;;3.68;52.04;98593.88;5026744;28;20045;-54
2022/04/27 11:45:58;;;;;;;2.72;1.02;;;;;;;3.45;50.91;98551.16;5026409;28;20049;-56
2022/04/27 11:48:34;;;;;;;2.70;1.10;;;;;;;3.67;51.50;98594.75;5026624;28;20054;-54
2022/04/27 11:51:06;;;;;;;6.85;1.20;;;;;;;3.64;51.75;98597.38;5026742;28;20053;-55
2022/04/27 11:53:46;;;;;;;8.85;1.10;;;;;;;3.56;52.98;98601.78;5026207;28;20088;-54
2022/04/27 11:56:19;;;;;;;8.55;1.20;;;;;;;3.51;53.05;98613.91;5026452;28;20065;-54
2022/04/27 11:58:50;;;;;;;4.00;1.02;;;;;;;3.46;52.87;98617.41;5026752;28;20356;-54
2022/04/27 12:01:23;;;;;;;3.03;1.00;;;;;;;3.42;53.30;98610.59;5025438;28;20120;-55
2022/04/27 12:03:55;;;;;;;3.13;1.05;;;;;;;3.42;53.21;98610.59;5026120;28;20053;-56
2022/04/27 12:06:28;;;;;;;9.70;1.20;;;;;;;3.40;53.03;98614.94;5025926;28;20076;-56
2022/04/27 12:09:02;;;;;;;10.52;1.33;;;;;;;3.36;52.53;98621.00;5026347;28;20108;-56
2022/04/27 12:11:33;;;;;;;3.03;0.90;;;;;;;3.36;52.37;98631.31;5025689;28;20073;-57
2022/04/27 12:14:04;;;;;;;5.43;1.30;;;;;;;3.37;52.77;98625.31;5025743;28;20053;-55
2022/04/27 12:16:34;;;;;;;4.28;1.20;;;;;;;3.38;53.49;98634.75;5026796;28;20060;-55
2022/04/27 12:19:07;;;;;;;7.78;1.13;;;;;;;3.37;52.69;98635.63;5027092;28;20037;-56
2022/04/27 12:21:38;;;;;;;6.55;1.20;;;;;;;3.35;53.17;98655.44;5026864;28;20061;-54